CA-0204 weather

CLOSED Lemoray Airport
British Columbia, Canada

Public forecast

Using degrees Celsius for public forecast. Weather courtesy of forecast.io.

METAR (pilot weather report)

Closest report is Mackenzie Airport, 27.0 nm (50.1 km) WSW. Retrieved 2019/08/23 10:00 UTC (3 minutes ago):

CYZY 231000Z AUTO 15005KT 9SM -RA FEW035 SCT048 OVC065 10/09 A2984 RMK SLP115

TAF (pilot weather forecast)

Closest forecast is Mackenzie Airport, 27.0 nm (50.1 km) WSW. Retrieved 2019/08/23 07:00 UTC (3 hours ago):

TAF CYZY 230638Z 2307/2309 VRB03KT P6SM -RA OVC060 TEMPO 2307/2308 OVC040 FM230800 VRB03KT P6SM -RA SCT020 BKN040 TEMPO 2308/2309 BKN020 OVC040 RMK FCST BASED ON AUTO OBS. NXT FCST WILL BE ISSUED AT 231445Z